sensor_id;sensor_type;location;lat;lon;timestamp;temperature;humidity
21271;DHT22;10795;50.796;3.860;2023-04-24T00:01:14;9.40;99.90
21271;DHT22;10795;50.796;3.860;2023-04-24T00:03:40;9.50;99.90
21271;DHT22;10795;50.796;3.860;2023-04-24T00:06:06;9.40;99.90
21271;DHT22;10795;50.796;3.860;2023-04-24T00:08:36;9.40;99.90
21271;DHT22;10795;50.796;3.860;2023-04-24T00:11:02;9.50;99.90
21271;DHT22;10795;50.796;3.860;2023-04-24T00:13:28;9.40;99.90
21271;DHT22;10795;50.796;3.860;2023-04-24T00:15:55;9.30;99.90
21271;DHT22;10795;50.796;3.860;2023-04-24T00:18:20;9.30;99.90
21271;DHT22;10795;50.796;3.860;2023-04-24T00:20:46;9.40;99.90
21271;DHT22;10795;50.796;3.860;2023-04-24T00:23:12;9.30;99.90
21271;DHT22;10795;50.796;3.860;2023-04-24T00:25:38;9.30;99.90
21271;DHT22;10795;50.796;3.860;2023-04-24T00:28:04;9.30;99.90
21271;DHT22;10795;50.796;3.860;2023-04-24T00:30:30;9.20;99.90
21271;DHT22;10795;50.796;3.860;2023-04-24T00:32:55;9.20;99.90
21271;DHT22;10795;50.796;3.860;2023-04-24T00:35:22;9.20;99.90
21271;DHT22;10795;50.796;3.860;2023-04-24T00:37:48;9.20;99.90
21271;DHT22;10795;50.796;3.860;2023-04-24T00:40:15;9.20;99.90
21271;DHT22;10795;50.796;3.860;2023-04-24T00:42:41;9.20;99.90
21271;DHT22;10795;50.796;3.860;2023-04-24T00:45:08;9.20;99.90
21271;DHT22;10795;50.796;3.860;2023-04-24T00:47:34;9.20;99.90
21271;DHT22;10795;50.796;3.860;2023-04-24T00:50:01;9.20;99.90
21271;DHT22;10795;50.796;3.860;2023-04-24T00:52:27;9.10;99.90
21271;DHT22;10795;50.796;3.860;2023-04-24T00:54:53;9.20;99.90
21271;DHT22;10795;50.796;3.860;2023-04-24T00:57:20;9.10;99.90
21271;DHT22;10795;50.796;3.860;2023-04-24T00:59:45;9.10;99.90
21271;DHT22;10795;50.796;3.860;2023-04-24T01:02:13;9.10;99.90
21271;DHT22;10795;50.796;3.860;2023-04-24T01:04:40;9.20;99.90
21271;DHT22;10795;50.796;3.860;2023-04-24T01:07:06;9.10;99.90
21271;DHT22;10795;50.796;3.860;2023-04-24T01:09:36;9.10;99.90
21271;DHT22;10795;50.796;3.860;2023-04-24T01:12:03;9.10;99.90
21271;DHT22;10795;50.796;3.860;2023-04-24T01:14:29;9.20;99.90
21271;DHT22;10795;50.796;3.860;2023-04-24T01:16:55;9.20;99.90
21271;DHT22;10795;50.796;3.860;2023-04-24T01:19:23;9.20;99.90
21271;DHT22;10795;50.796;3.860;2023-04-24T01:21:49;9.10;99.90
21271;DHT22;10795;50.796;3.860;2023-04-24T01:24:17;9.20;99.90
21271;DHT22;10795;50.796;3.860;2023-04-24T01:26:44;9.10;99.90
21271;DHT22;10795;50.796;3.860;2023-04-24T01:29:11;9.10;99.90
21271;DHT22;10795;50.796;3.860;2023-04-24T01:31:37;9.10;99.90
21271;DHT22;10795;50.796;3.860;2023-04-24T01:34:03;9.00;99.90
21271;DHT22;10795;50.796;3.860;2023-04-24T01:36:29;9.00;99.90
21271;DHT22;10795;50.796;3.860;2023-04-24T01:38:56;9.00;99.90
21271;DHT22;10795;50.796;3.860;2023-04-24T01:41:25;9.00;99.90
21271;DHT22;10795;50.796;3.860;2023-04-24T01:43:50;8.90;99.90
21271;DHT22;10795;50.796;3.860;2023-04-24T01:46:19;8.90;99.90
21271;DHT22;10795;50.796;3.860;2023-04-24T01:48:45;8.90;99.90
21271;DHT22;10795;50.796;3.860;2023-04-24T01:51:11;8.90;99.90
21271;DHT22;10795;50.796;3.860;2023-04-24T01:53:36;8.80;99.90
21271;DHT22;10795;50.796;3.860;2023-04-24T01:56:02;8.80;99.90
21271;DHT22;10795;50.796;3.860;2023-04-24T01:58:28;8.80;99.90
21271;DHT22;10795;50.796;3.860;2023-04-24T02:00:58;8.80;99.90
21271;DHT22;10795;50.796;3.860;2023-04-24T02:03:27;8.70;99.90
21271;DHT22;10795;50.796;3.860;2023-04-24T02:05:53;8.70;99.90
21271;DHT22;10795;50.796;3.860;2023-04-24T02:08:19;8.70;99.90
21271;DHT22;10795;50.796;3.860;2023-04-24T02:10:44;8.70;99.90
21271;DHT22;10795;50.796;3.860;2023-04-24T02:13:10;8.60;99.90
21271;DHT22;10795;50.796;3.860;2023-04-24T02:15:36;8.60;99.90
21271;DHT22;10795;50.796;3.860;2023-04-24T02:18:02;8.60;99.90
21271;DHT22;10795;50.796;3.860;2023-04-24T02:20:31;8.60;99.90
21271;DHT22;10795;50.796;3.860;2023-04-24T02:22:59;8.60;99.90
21271;DHT22;10795;50.796;3.860;2023-04-24T02:25:25;8.50;99.90
21271;DHT22;10795;50.796;3.860;2023-04-24T02:27:54;8.60;99.90
21271;DHT22;10795;50.796;3.860;2023-04-24T02:30:20;8.60;99.90
21271;DHT22;10795;50.796;3.860;2023-04-24T02:32:45;8.60;99.90
21271;DHT22;10795;50.796;3.860;2023-04-24T02:35:11;8.60;99.90
21271;DHT22;10795;50.796;3.860;2023-04-24T02:37:37;8.60;99.90
21271;DHT22;10795;50.796;3.860;2023-04-24T02:40:03;8.60;99.90
21271;DHT22;10795;50.796;3.860;2023-04-24T02:42:29;8.60;99.90
21271;DHT22;10795;50.796;3.860;2023-04-24T02:44:56;8.60;99.90
21271;DHT22;10795;50.796;3.860;2023-04-24T02:47:21;8.60;99.90
21271;DHT22;10795;50.796;3.860;2023-04-24T02:49:48;8.60;99.90
21271;DHT22;10795;50.796;3.860;2023-04-24T02:52:14;8.60;99.90
21271;DHT22;10795;50.796;3.860;2023-04-24T02:54:40;8.60;99.90
21271;DHT22;10795;50.796;3.860;2023-04-24T02:57:06;8.60;99.90
21271;DHT22;10795;50.796;3.860;2023-04-24T02:59:31;8.60;99.90
21271;DHT22;10795;50.796;3.860;2023-04-24T03:01:57;8.60;99.90
21271;DHT22;10795;50.796;3.860;2023-04-24T03:04:23;8.60;99.90
21271;DHT22;10795;50.796;3.860;2023-04-24T03:06:49;8.60;99.90
21271;DHT22;10795;50.796;3.860;2023-04-24T03:09:19;8.60;99.90
21271;DHT22;10795;50.796;3.860;2023-04-24T03:11:46;8.60;99.90
21271;DHT22;10795;50.796;3.860;2023-04-24T03:14:12;8.70;99.90
21271;DHT22;10795;50.796;3.860;2023-04-24T03:16:38;8.70;99.90
21271;DHT22;10795;50.796;3.860;2023-04-24T03:19:03;8.80;99.90
21271;DHT22;10795;50.796;3.860;2023-04-24T03:21:32;8.80;99.90
21271;DHT22;10795;50.796;3.860;2023-04-24T03:23:58;8.70;99.90
21271;DHT22;10795;50.796;3.860;2023-04-24T03:26:24;8.60;99.90
21271;DHT22;10795;50.796;3.860;2023-04-24T03:29:02;8.70;99.90
21271;DHT22;10795;50.796;3.860;2023-04-24T03:31:28;8.70;99.90
21271;DHT22;10795;50.796;3.860;2023-04-24T03:33:53;8.70;99.90
21271;DHT22;10795;50.796;3.860;2023-04-24T03:36:20;8.60;99.90
21271;DHT22;10795;50.796;3.860;2023-04-24T03:38:46;8.70;99.90
21271;DHT22;10795;50.796;3.860;2023-04-24T03:41:38;8.70;99.90
21271;DHT22;10795;50.796;3.860;2023-04-24T03:44:14;8.90;99.90
21271;DHT22;10795;50.796;3.860;2023-04-24T03:46:41;8.90;99.90
21271;DHT22;10795;50.796;3.860;2023-04-24T03:49:06;8.90;99.90
21271;DHT22;10795;50.796;3.860;2023-04-24T03:51:36;8.90;99.90
21271;DHT22;10795;50.796;3.860;2023-04-24T03:54:17;8.90;99.90
21271;DHT22;10795;50.796;3.860;2023-04-24T03:56:44;8.90;99.90
21271;DHT22;10795;50.796;3.860;2023-04-24T03:59:10;8.90;99.90
21271;DHT22;10795;50.796;3.860;2023-04-24T04:01:39;9.00;99.90
21271;DHT22;10795;50.796;3.860;2023-04-24T04:04:14;9.00;99.90
21271;DHT22;10795;50.796;3.860;2023-04-24T04:06:41;8.90;99.90
21271;DHT22;10795;50.796;3.860;2023-04-24T04:09:08;9.00;99.90
21271;DHT22;10795;50.796;3.860;2023-04-24T04:11:35;8.90;99.90
21271;DHT22;10795;50.796;3.860;2023-04-24T04:14:01;8.80;99.90
21271;DHT22;10795;50.796;3.860;2023-04-24T04:16:27;8.80;99.90
21271;DHT22;10795;50.796;3.860;2023-04-24T04:18:59;8.80;99.90
21271;DHT22;10795;50.796;3.860;2023-04-24T04:21:25;8.90;99.90
21271;DHT22;10795;50.796;3.860;2023-04-24T04:23:57;8.80;99.90
21271;DHT22;10795;50.796;3.860;2023-04-24T04:26:29;8.80;99.90
21271;DHT22;10795;50.796;3.860;2023-04-24T04:29:03;8.70;99.90
21271;DHT22;10795;50.796;3.860;2023-04-24T04:31:30;8.70;99.90
21271;DHT22;10795;50.796;3.860;2023-04-24T04:33:59;8.60;99.90
21271;DHT22;10795;50.796;3.860;2023-04-24T04:36:29;8.70;99.90
21271;DHT22;10795;50.796;3.860;2023-04-24T04:39:04;8.70;99.90
21271;DHT22;10795;50.796;3.860;2023-04-24T04:41:46;8.70;99.90
21271;DHT22;10795;50.796;3.860;2023-04-24T04:44:16;8.80;99.90
21271;DHT22;10795;50.796;3.860;2023-04-24T04:46:42;8.70;99.90
21271;DHT22;10795;50.796;3.860;2023-04-24T04:49:16;8.60;99.90
21271;DHT22;10795;50.796;3.860;2023-04-24T04:51:42;8.70;99.90
21271;DHT22;10795;50.796;3.860;2023-04-24T04:54:08;8.60;99.90
21271;DHT22;10795;50.796;3.860;2023-04-24T04:56:35;8.60;99.90
21271;DHT22;10795;50.796;3.860;2023-04-24T04:59:02;8.50;99.90
21271;DHT22;10795;50.796;3.860;2023-04-24T05:01:28;8.40;99.90
21271;DHT22;10795;50.796;3.860;2023-04-24T05:03:54;8.40;99.90
21271;DHT22;10795;50.796;3.860;2023-04-24T05:06:20;8.40;99.90
21271;DHT22;10795;50.796;3.860;2023-04-24T05:08:46;8.30;99.90
21271;DHT22;10795;50.796;3.860;2023-04-24T05:11:24;8.40;99.90
21271;DHT22;10795;50.796;3.860;2023-04-24T05:13:51;8.40;99.90
21271;DHT22;10795;50.796;3.860;2023-04-24T05:16:22;8.30;99.90
21271;DHT22;10795;50.796;3.860;2023-04-24T05:18:49;8.30;99.90
21271;DHT22;10795;50.796;3.860;2023-04-24T05:21:19;8.40;99.90
21271;DHT22;10795;50.796;3.860;2023-04-24T05:23:49;8.40;99.90
21271;DHT22;10795;50.796;3.860;2023-04-24T05:26:22;8.30;99.90
21271;DHT22;10795;50.796;3.860;2023-04-24T05:28:48;8.40;99.90
21271;DHT22;10795;50.796;3.860;2023-04-24T05:31:15;8.40;99.90
21271;DHT22;10795;50.796;3.860;2023-04-24T05:33:43;8.40;99.90
21271;DHT22;10795;50.796;3.860;2023-04-24T05:36:12;8.50;99.90
21271;DHT22;10795;50.796;3.860;2023-04-24T05:38:38;8.50;99.90
21271;DHT22;10795;50.796;3.860;2023-04-24T05:41:04;8.50;99.90
21271;DHT22;10795;50.796;3.860;2023-04-24T05:43:30;8.50;99.90
21271;DHT22;10795;50.796;3.860;2023-04-24T05:45:55;8.50;99.90
21271;DHT22;10795;50.796;3.860;2023-04-24T05:48:22;8.50;99.90
21271;DHT22;10795;50.796;3.860;2023-04-24T05:50:48;8.50;99.90
21271;DHT22;10795;50.796;3.860;2023-04-24T05:53:14;8.60;99.90
21271;DHT22;10795;50.796;3.860;2023-04-24T05:55:39;8.60;99.90
21271;DHT22;10795;50.796;3.860;2023-04-24T05:58:05;8.60;99.90
21271;DHT22;10795;50.796;3.860;2023-04-24T06:00:33;8.60;99.90
21271;DHT22;10795;50.796;3.860;2023-04-24T06:03:04;8.70;99.90
21271;DHT22;10795;50.796;3.860;2023-04-24T06:05:30;8.80;99.90
21271;DHT22;10795;50.796;3.860;2023-04-24T06:07:55;8.90;99.90
21271;DHT22;10795;50.796;3.860;2023-04-24T06:10:24;8.90;99.90
21271;DHT22;10795;50.796;3.860;2023-04-24T06:12:49;9.00;99.90
21271;DHT22;10795;50.796;3.860;2023-04-24T06:15:16;8.90;99.90
21271;DHT22;10795;50.796;3.860;2023-04-24T06:18:03;8.80;99.90
21271;DHT22;10795;50.796;3.860;2023-04-24T06:20:28;8.90;99.90
21271;DHT22;10795;50.796;3.860;2023-04-24T06:22:54;8.90;99.90
21271;DHT22;10795;50.796;3.860;2023-04-24T06:25:20;9.00;99.90
21271;DHT22;10795;50.796;3.860;2023-04-24T06:27:46;8.90;99.90
21271;DHT22;10795;50.796;3.860;2023-04-24T06:30:12;9.00;99.90
21271;DHT22;10795;50.796;3.860;2023-04-24T06:32:37;9.00;99.90
21271;DHT22;10795;50.796;3.860;2023-04-24T06:35:03;9.00;99.90
21271;DHT22;10795;50.796;3.860;2023-04-24T06:37:29;9.00;99.90
21271;DHT22;10795;50.796;3.860;2023-04-24T06:39:55;8.90;99.90
21271;DHT22;10795;50.796;3.860;2023-04-24T06:42:21;8.90;99.90
21271;DHT22;10795;50.796;3.860;2023-04-24T06:44:49;9.00;99.90
21271;DHT22;10795;50.796;3.860;2023-04-24T06:47:14;9.20;99.90
21271;DHT22;10795;50.796;3.860;2023-04-24T06:49:41;9.30;99.90
21271;DHT22;10795;50.796;3.860;2023-04-24T06:52:07;9.30;99.90
21271;DHT22;10795;50.796;3.860;2023-04-24T06:54:32;9.40;99.90
21271;DHT22;10795;50.796;3.860;2023-04-24T06:56:58;9.50;99.90
21271;DHT22;10795;50.796;3.860;2023-04-24T06:59:26;9.70;99.90
21271;DHT22;10795;50.796;3.860;2023-04-24T07:01:52;9.70;99.90
21271;DHT22;10795;50.796;3.860;2023-04-24T07:04:17;9.80;99.90
21271;DHT22;10795;50.796;3.860;2023-04-24T07:06:44;9.90;99.90
21271;DHT22;10795;50.796;3.860;2023-04-24T07:09:11;9.80;99.90
21271;DHT22;10795;50.796;3.860;2023-04-24T07:11:37;9.80;99.90
21271;DHT22;10795;50.796;3.860;2023-04-24T07:14:04;9.80;99.90
21271;DHT22;10795;50.796;3.860;2023-04-24T07:16:30;10.00;99.90
21271;DHT22;10795;50.796;3.860;2023-04-24T07:18:56;9.80;99.90
21271;DHT22;10795;50.796;3.860;2023-04-24T07:21:21;9.70;99.90
21271;DHT22;10795;50.796;3.860;2023-04-24T07:23:47;9.50;99.90
21271;DHT22;10795;50.796;3.860;2023-04-24T07:26:12;9.50;99.90
21271;DHT22;10795;50.796;3.860;2023-04-24T07:28:40;9.40;99.90
21271;DHT22;10795;50.796;3.860;2023-04-24T07:31:06;9.40;99.90
21271;DHT22;10795;50.796;3.860;2023-04-24T07:33:32;9.40;99.90
21271;DHT22;10795;50.796;3.860;2023-04-24T07:35:58;9.40;99.90
21271;DHT22;10795;50.796;3.860;2023-04-24T07:38:24;9.40;99.90
21271;DHT22;10795;50.796;3.860;2023-04-24T07:40:51;9.50;99.90
21271;DHT22;10795;50.796;3.860;2023-04-24T07:43:17;9.90;99.90
21271;DHT22;10795;50.796;3.860;2023-04-24T07:45:42;9.90;99.90
21271;DHT22;10795;50.796;3.860;2023-04-24T07:48:08;9.70;99.90
21271;DHT22;10795;50.796;3.860;2023-04-24T07:50:34;9.80;99.90
